Flight Track Log - Related Links

Times and Time Zones

All times are in EDT time to prevent confusion due to time zone crossing. See the VH-TVL flight status page for this flight to view local times or setup timezone preferences in your user account.

Time Position Orientation Groundspeed Altitude Reporting Facility
EDT Latitude Longitude Course Direction KTS MPH feet Rate Location/Type
Sat 04:14:19 AM -31.9402 115.9669 146° Southeast 1,500  Level Aus ATC (Calculated)
Sat 04:14:34 AM -31.9411 115.9676 193° South 55 63 400 -1,200 Descending Aus ATC (RADAR)
Sat 04:15:04 AM -31.9487 115.9656 193° South 54 62 600 776 Climbing Aus ATC (RADAR)
Sat 04:15:59 AM -31.9527 115.9835 105° East 71 82 1,500 632 Climbing Aus ATC (RADAR)
Sat 04:16:39 AM -31.9531 116.0049 91° East 95 109 1,600 67 Climbing Aus ATC (RADAR)
Sat 04:17:29 AM -31.9522 116.0324 88° East 98 113 1,600 -141 Level Aus ATC (RADAR)
Sat 04:18:04 AM -31.9513 116.0535 87° East 106 122 1,400 -189 Descending Aus ATC (RADAR)
Sat 04:19:04 AM -31.9522 116.0870 92° East 99 114 1,300 -64 Descending Aus ATC (RADAR)
Sat 04:19:38 AM -31.9528 116.1053 92° East 95 109 1,300 75 Level Aus ATC (RADAR)
Sat 04:20:24 AM -31.9547 116.1279 96° East 91 105 1,400 46 Climbing Aus ATC (RADAR)
Sat 04:21:48 AM -31.9554 116.1734 91° East 93 107 1,400  Level Aus ATC (RADAR)
Sat 04:22:43 AM -31.9541 116.2048 87° East 104 120 1,400 86 Level Aus ATC (RADAR)
Sat 04:22:58 AM -31.9518 116.2132 72° East 105 121 1,500 600 Climbing Aus ATC (RADAR)
Sat 04:23:33 AM -31.9477 116.2316 75° East 98 113 1,900 273 Climbing Aus ATC (RADAR)
Sat 04:24:48 AM -31.9338 116.2740 69° East 106 122 2,000 -67 Climbing Aus ATC (RADAR)
Sat 04:25:03 AM -31.9310 116.2816 66° East 102 117 1,800 -360 Descending Aus ATC (RADAR)
Sat 04:25:38 AM -31.9228 116.2978 59° Northeast 100 115 1,700  Descending Aus ATC (RADAR)
Sat 04:26:28 AM -31.9081 116.3173 49° Northeast 96 110 1,800 91 Climbing Aus ATC (RADAR)
Sat 04:26:44 AM -31.9042 116.3239 55° Northeast 97 112 1,800 -120 Level Aus ATC (RADAR)
Sat 04:27:18 AM -31.8957 116.3390 57° Northeast 94 108 1,700 -71 Descending Aus ATC (RADAR)
Sat 04:28:08 AM -31.8830 116.3627 58° Northeast 104 120 1,700  Level Aus ATC (RADAR)
Sat 04:28:43 AM -31.8759 116.3808 65° Northeast 102 117 1,700  Level Aus ATC (RADAR)
Sat 04:29:37 AM -31.8657 116.4097 67° East 100 115 1,700 174 Level Aus ATC (RADAR)
Sat 04:29:52 AM -31.8630 116.4170 67° East 97 112 1,900 130 Climbing Aus ATC (RADAR)
Sat 04:30:23 AM -31.8570 116.4319 65° Northeast 98 113 1,800  Descending Aus ATC (RADAR)
Sat 04:31:17 AM -31.8442 116.4571 59° Northeast 95 109 1,900 174 Climbing Aus ATC (RADAR)
Sat 04:31:32 AM -31.8410 116.4639 61° Northeast 93 107 2,000 -120 Climbing Aus ATC (RADAR)
Sat 04:32:07 AM -31.8317 116.4808 57° Northeast 104 120 1,800 -132 Descending Aus ATC (RADAR)
Sat 04:33:03 AM -31.8189 116.5077 61° Northeast 103 119 1,800  Level Aus ATC (RADAR)
Sat 04:33:32 AM -31.8112 116.5229 59° Northeast 105 121 1,800 64 Level Aus ATC (RADAR)
Sat 04:34:37 AM -31.7938 116.5545 57° Northeast 105 121 1,900 150 Climbing Aus ATC (RADAR)
Sat 04:34:52 AM -31.7891 116.5612 50° Northeast 104 120 2,000 120 Climbing Aus ATC (RADAR)
Sat 04:35:27 AM -31.7804 116.5770 57° Northeast 97 112 2,000  Level Aus ATC (RADAR)
Sat 04:36:22 AM -31.7631 116.5977 45° Northeast 97 112 2,000  Level Aus ATC (RADAR)
Sat 04:37:07 AM -31.7430 116.6088 25° Northeast 105 121 2,000 -60 Level Aus ATC (RADAR)
Sat 04:38:02 AM -31.7195 116.6236 28° Northeast 105 121 1,900 -67 Descending Aus ATC (RADAR)
Sat 04:38:37 AM -31.7068 116.6363 40° Northeast 103 119 1,900 57 Level Aus ATC (RADAR)
Sat 04:39:47 AM -31.6855 116.6627 46° Northeast 99 114 2,000 71 Climbing Aus ATC (RADAR)
Sat 04:40:02 AM -31.6799 116.6683 40° Northeast 102 117 2,000  Level Aus ATC (RADAR)
Sat 04:40:31 AM -31.6698 116.6793 43° Northeast 98 113 2,000 -67 Level Aus ATC (RADAR)
Sat 04:41:31 AM -31.6464 116.6890 20° North 87 100 1,900 -80 Descending Aus ATC (RADAR)
Sat 04:41:46 AM -31.6393 116.6885 357° North 92 106 1,900  Level Aus ATC (RADAR)
Sat 04:42:21 AM -31.6270 116.6821 336° Northwest 97 112 1,900 -141 Level Aus ATC (RADAR)
Sat 04:43:11 AM -31.6368 116.6860 161° South 56 64 1,700 17 Descending Aus ATC (RADAR)
Sat 04:46:26 AM -31.7177 116.6720 18° North 1,500 60 Descending Aus ATC (Calculated)
Sat 04:48:00 AM -31.7551 116.6641 190° South  Level FlightAware Approximate
Sat 04:48:11 AM -31.6472 116.6996 190° South 78 90 2,000  Level Aus ATC (RADAR)
Sat 04:48:46 AM -31.6564 116.7022 166° South 60 69 2,100 286 Climbing Aus ATC (RADAR)
Sat 04:49:56 AM -31.6767 116.6964 194° South 66 76 2,500 282 Climbing Aus ATC (RADAR)
Sat 04:50:11 AM -31.6816 116.6944 199° South 71 82 2,500  Level Aus ATC (RADAR)
Sat 04:50:41 AM -31.6920 116.6898 201° Southwest 80 92 2,500 71 Level Aus ATC (RADAR)
Sat 04:51:36 AM -31.7120 116.6826 197° South 80 92 2,600  Climbing Aus ATC (RADAR)
Sat 04:51:51 AM -31.7174 116.6802 201° Southwest 82 94 2,500  Descending Aus ATC (RADAR)
Sat 04:52:26 AM -31.7297 116.6723 209° Southwest 86 99 2,600 67 Climbing Aus ATC (RADAR)
Sat 04:53:20 AM -31.7497 116.6642 199° South 80 92 2,600  Level Aus ATC (RADAR)
Sat 04:53:55 AM -31.7624 116.6626 186° South 77 89 2,600 -60 Level Aus ATC (RADAR)
Sat 04:55:00 AM -31.7854 116.6560 194° South 83 96 2,500 -75 Descending Aus ATC (RADAR)
Sat 04:55:15 AM -31.7920 116.6536 197° South 90 104 2,500  Level Aus ATC (RADAR)
Sat 04:55:45 AM -31.8050 116.6500 193° South 95 109 2,500 -71 Level Aus ATC (RADAR)
Sat 04:56:40 AM -31.8289 116.6430 194° South 96 110 2,400 -86 Descending Aus ATC (RADAR)
Sat 04:56:55 AM -31.8355 116.6419 188° South 96 110 2,400 267 Level Aus ATC (RADAR)
Sat 04:57:25 AM -31.8480 116.6397 189° South 91 105 2,600 141 Climbing Aus ATC (RADAR)
Sat 04:58:20 AM -31.8735 116.6362 187° South 101 116 2,600 -133 Level Aus ATC (RADAR)
Sat 04:58:55 AM -31.8904 116.6357 181° South 103 119 2,400 -60 Descending Aus ATC (RADAR)
Sat 05:00:00 AM -31.9208 116.6367 179° South 103 119 2,500  Climbing Aus ATC (RADAR)
Sat 05:00:16 AM -31.9277 116.6375 174° South 101 116 2,400 -120 Descending Aus ATC (RADAR)
Sat 05:00:50 AM -31.9429 116.6413 168° South 98 113 2,400  Level Aus ATC (RADAR)
Sat 05:01:45 AM -31.9693 116.6450 173° South 104 120 2,400  Level Aus ATC (RADAR)
Sat 05:02:00 AM -31.9768 116.6452 179° South 106 122 2,400  Level Aus ATC (RADAR)
Sat 05:02:30 AM -31.9905 116.6463 176° South 98 113 2,400 71 Level Aus ATC (RADAR)
Sat 05:03:25 AM -32.0153 116.6483 176° South 96 110 2,500  Climbing Aus ATC (RADAR)
Sat 05:04:00 AM -32.0310 116.6516 170° South 98 113 2,400 60 Descending Aus ATC (RADAR)
Sat 05:05:05 AM -32.0573 116.6579 169° South 90 104 2,600 209 Climbing Aus ATC (RADAR)
Sat 05:05:55 AM -32.0793 116.6632 168° South 95 109 2,800 58 Climbing Aus ATC (RADAR)
Sat 05:06:49 AM -32.1020 116.6609 185° South 93 107 2,700 -60 Descending Aus ATC (RADAR)
Sat 05:07:35 AM -32.1219 116.6573 189° South 97 112 2,700 -120 Level Aus ATC (RADAR)
Sat 05:08:29 AM -32.1444 116.6523 191° South 87 100 2,500 -270 Descending Aus ATC (RADAR)
Sat 05:09:04 AM -32.1592 116.6440 205° Southwest 95 109 2,300 -60 Descending Aus ATC (RADAR)
Sat 05:10:09 AM -32.1835 116.6279 209° Southwest 89 102 2,400 150 Climbing Aus ATC (RADAR)
Sat 05:10:24 AM -32.1893 116.6238 211° Southwest 91 105 2,500 133 Climbing Aus ATC (RADAR)
Sat 05:10:54 AM -32.2010 116.6165 208° Southwest 94 108 2,500 141 Level Aus ATC (RADAR)
Sat 05:11:49 AM -32.2220 116.6003 213° Southwest 98 113 2,700 86 Climbing Aus ATC (RADAR)
Sat 05:12:04 AM -32.2268 116.5940 228° Southwest 101 116 2,600 -133 Descending Aus ATC (RADAR)
Sat 05:12:34 AM -32.2365 116.5859 215° Southwest 89 102 2,600 -71 Level Aus ATC (RADAR)
Sat 05:13:29 AM -32.2544 116.5796 196° South 77 89 2,500 -135 Descending Aus ATC (RADAR)
Sat 05:14:03 AM -32.2673 116.5725 205° Southwest 86 99 2,400  Descending Aus ATC (RADAR)
Sat 05:15:08 AM -32.2888 116.5579 210° Southwest 74 85 2,500 150 Climbing Aus ATC (RADAR)
Sat 05:15:23 AM -32.2904 116.5517 253° West 77 89 2,600 360 Climbing Aus ATC (RADAR)
Sat 05:15:58 AM -32.2911 116.5358 267° West 81 93 2,800 -67 Climbing Aus ATC (RADAR)
Sat 05:16:53 AM -32.2919 116.5082 268° West 95 109 2,500 -257 Descending Aus ATC (RADAR)
Sat 05:17:08 AM -32.2904 116.5003 283° West 96 110 2,500 -133 Level Aus ATC (RADAR)
Sat 05:17:38 AM -32.2888 116.4851 277° West 92 106 2,400 -212 Descending Aus ATC (RADAR)
Sat 05:18:33 AM -32.2844 116.4566 280° West 94 108 2,200 -133 Descending Aus ATC (RADAR)
Sat 05:19:08 AM -32.2816 116.4394 281° West 89 102 2,200 120 Level Aus ATC (RADAR)
Sat 05:20:13 AM -32.2761 116.4102 283° West 81 93 2,400 212 Climbing Aus ATC (RADAR)
Sat 05:20:33 AM -32.2733 116.4017 292° West 83 96 2,500 218 Climbing Aus ATC (RADAR)
Sat 05:21:08 AM -32.2687 116.3860 289° West 85 98 2,600 52 Climbing Aus ATC (RADAR)
Sat 05:22:28 AM -32.2625 116.3479 281° West 87 100 2,600 -46 Level Aus ATC (RADAR)
Sat 05:23:19 AM -32.2616 116.3224 273° West 92 106 2,500 -121 Descending Aus ATC (RADAR)
Sat 05:24:07 AM -32.2596 116.2979 275° West 86 99 2,400 -45 Descending Aus ATC (RADAR)
Sat 05:25:32 AM -32.2517 116.2578 283° West 91 105 2,400  Level Aus ATC (RADAR)
Sat 05:25:47 AM -32.2494 116.2495 288° West 97 112 2,400 -133 Level Aus ATC (RADAR)
Sat 05:26:17 AM -32.2458 116.2339 285° West 97 112 2,300  Descending Aus ATC (RADAR)
Sat 05:27:12 AM -32.2380 116.2071 289° West 90 104 2,400  Climbing Aus ATC (RADAR)
Sat 05:27:47 AM -32.2333 116.1901 288° West 92 106 2,300 -71 Descending Aus ATC (RADAR)
Sat 05:28:37 AM -32.2279 116.1658 285° West 88 101 2,300  Level Aus ATC (RADAR)
Sat 05:28:52 AM -32.2271 116.1586 277° West 87 100 2,300  Level Aus ATC (RADAR)
Sat 05:29:27 AM -32.2257 116.1413 276° West 88 101 2,300  Level Aus ATC (RADAR)
Sat 05:30:22 AM -32.2199 116.1154 285° West 91 105 2,300 86 Level Aus ATC (RADAR)
Sat 05:30:37 AM -32.2167 116.1091 301° West 90 104 2,400 122 Climbing Aus ATC (RADAR)
Sat 05:31:11 AM -32.2093 116.0940 300° West 90 104 2,400 71 Level Aus ATC (RADAR)
Sat 05:32:02 AM -32.2001 116.0690 293° West 97 112 2,500  Climbing Aus ATC (RADAR)
Sat 05:32:47 AM -32.1973 116.0463 279° West 91 105 2,400 -182 Descending Aus ATC (RADAR)
Sat 05:33:41 AM -32.2010 116.0260 258° West 65 75 2,200 -348 Descending Aus ATC (RADAR)
Sat 05:33:56 AM -32.2014 116.0193 265° West 71 82 2,000 -800 Descending Aus ATC (RADAR)
Sat 05:34:26 AM -32.2034 116.0053 260° West 80 92 1,600 -353 Descending Aus ATC (RADAR)
Sat 05:35:21 AM -32.2045 115.9799 267° West 80 92 1,500 -171 Descending Aus ATC (RADAR)
Sat 05:35:36 AM -32.2043 115.9714 272° West 90 104 1,400  Descending Aus ATC (RADAR)
Sat 05:36:07 AM -32.1956 115.9575 306° West 106 122 1,500  Climbing Aus ATC (RADAR)
Sat 05:37:01 AM -32.1683 115.9446 338° Northwest 115 132 1,400 -87 Descending Aus ATC (RADAR)
Sat 05:37:16 AM -32.1615 115.9398 329° Northwest 113 130 1,400 -133 Level Aus ATC (RADAR)
Sat 05:37:46 AM -32.1489 115.9279 321° Northwest 113 130 1,300 -71 Descending Aus ATC (RADAR)
Sat 05:38:41 AM -32.1282 115.9077 320° Northwest 105 121 1,300 120 Level Aus ATC (RADAR)
Sat 05:39:26 AM -32.1110 115.8911 321° Northwest 105 121 1,500 -164 Climbing Aus ATC (RADAR)
Sat 05:40:31 AM -32.0857 115.8680 322° Northwest 107 123 1,000 -462 Descending Aus ATC (RADAR)

Login

Don't have an account? Register now (free) for customized features, flight alerts, and more!